カイロ の空港の天気 - METARとTAF

カイロ国際空港 ( HECA / CAI ) - エジプト [カイロ
飛行場実況気象(Metar)
観測時間01/21 20:00 EET (01/21 18:00 UTC)
風向・風速南 7m/s
視程10km以上
天気現象
なし
気温19℃
湿度32%
気圧1013hPa
METARHECA 211800Z 18013KT CAVOK 19/02 Q1013 NOSIG
過去の天気等 Google飛行場航空写真 Wunderground天気予報

過去48時間のMETAR

飛行場予報(TAF)
発表時間: 1/21 19:00 EET (1/21 17:00 UTC)
予報対象時間: 21日20時 EET ~ 23日2時 EET
風向・風速南西 7m/s
視程10km以上
なし
22日8時 EET ~ 22日14時 EET に 確率 30% で一時的に
視程4,000m
天気現象砂塵
なし
TAF HECA 211700Z 2118/2224 22013KT CAVOK
PROB30 TEMPO 2206/2212 4000 SA NSC